createdAt,value
2019-03-15T00:01:50.542Z,43.48
2019-03-15T00:04:19.312Z,45.97
2019-03-15T00:06:48.200Z,48.37
2019-03-15T00:09:17.637Z,48.08
2019-03-15T00:11:46.395Z,48.27
2019-03-15T00:14:15.239Z,48.77
2019-03-15T00:16:44.004Z,51.20
2019-03-15T00:19:12.894Z,47.10
2019-03-15T00:21:41.805Z,44.77
2019-03-15T00:24:10.571Z,46.80
2019-03-15T00:26:39.454Z,45.83
2019-03-15T00:29:08.885Z,49.30
2019-03-15T00:31:37.808Z,46.57
2019-03-15T00:34:06.939Z,49.43
2019-03-15T00:36:36.372Z,48.98
2019-03-15T00:39:06.645Z,46.83
2019-03-15T00:41:35.409Z,47.93
2019-03-15T00:44:04.249Z,48.53
2019-03-15T00:46:33.054Z,48.00
2019-03-15T00:49:02.485Z,51.35
2019-03-15T00:51:31.959Z,49.85
2019-03-15T00:54:01.339Z,50.98
2019-03-15T00:56:30.776Z,49.10
2019-03-15T00:58:59.614Z,45.85
2019-03-15T01:01:28.491Z,49.27
2019-03-15T01:03:57.308Z,49.53
2019-03-15T01:06:26.731Z,53.85
2019-03-15T01:08:56.169Z,50.78
2019-03-15T01:11:25.540Z,47.40
2019-03-15T01:13:54.913Z,50.10
2019-03-15T01:16:23.672Z,48.10
2019-03-15T01:18:52.499Z,54.80
2019-03-15T01:21:21.916Z,52.40
2019-03-15T01:23:50.669Z,68.57
2019-03-15T01:26:19.454Z,67.67
2019-03-15T01:28:48.810Z,52.93
2019-03-15T01:31:18.296Z,56.92
2019-03-15T01:33:47.197Z,53.10
2019-03-15T01:36:16.651Z,51.50
2019-03-15T01:38:46.147Z,49.08
2019-03-15T01:41:14.908Z,50.93
2019-03-15T01:43:44.262Z,46.23
2019-03-15T01:46:13.067Z,46.00
2019-03-15T01:48:42.596Z,47.77
2019-03-15T01:51:11.383Z,46.30
2019-03-15T01:53:40.215Z,45.83
2019-03-15T01:56:09.601Z,44.48
2019-03-15T01:58:38.395Z,43.57
2019-03-15T02:01:07.143Z,43.80
2019-03-15T02:03:35.977Z,46.37
2019-03-15T02:06:04.795Z,43.03
2019-03-15T02:08:34.147Z,45.10
2019-03-15T02:11:03.714Z,44.93
2019-03-15T02:13:32.607Z,42.30
2019-03-15T02:16:01.495Z,42.07
2019-03-15T02:18:30.327Z,40.53
2019-03-15T02:20:59.743Z,42.15
2019-03-15T02:23:29.158Z,40.00
2019-03-15T02:25:57.940Z,38.70
2019-03-15T02:28:26.762Z,40.53
2019-03-15T02:30:55.592Z,39.83
2019-03-15T02:33:24.426Z,40.73
2019-03-15T02:35:53.863Z,39.88
2019-03-15T02:38:23.292Z,43.73
2019-03-15T02:40:53.314Z,44.93
2019-03-15T02:43:22.717Z,41.50
2019-03-15T02:45:51.551Z,42.03
2019-03-15T02:48:20.335Z,45.20
2019-03-15T02:50:49.218Z,52.00
2019-03-15T02:53:18.560Z,44.77
2019-03-15T02:55:48.323Z,58.40
2019-03-15T02:58:17.270Z,50.30
2019-03-15T03:00:46.045Z,47.70
2019-03-15T03:03:14.887Z,42.00
2019-03-15T03:05:43.699Z,40.43
2019-03-15T03:08:14.163Z,41.17
2019-03-15T03:10:43.202Z,41.60
2019-03-15T03:13:11.960Z,38.83
2019-03-15T03:15:40.785Z,42.93
2019-03-15T03:18:09.552Z,44.80
2019-03-15T03:20:38.386Z,42.93
2019-03-15T03:23:07.313Z,50.93
2019-03-15T03:25:36.104Z,42.20
2019-03-15T03:28:04.958Z,43.73
2019-03-15T03:30:33.731Z,42.40
2019-03-15T03:33:02.492Z,45.17
2019-03-15T03:35:31.252Z,42.33
2019-03-15T03:38:00.112Z,44.07
2019-03-15T03:40:29.589Z,45.37
2019-03-15T03:42:58.510Z,45.07
2019-03-15T03:45:27.278Z,46.37
2019-03-15T03:47:56.118Z,46.40
2019-03-15T03:50:24.885Z,46.43
2019-03-15T03:52:53.651Z,45.13
2019-03-15T03:55:22.421Z,43.27
2019-03-15T03:57:51.271Z,44.97
2019-03-15T04:00:20.103Z,48.23
2019-03-15T04:02:48.865Z,52.23
2019-03-15T04:05:17.714Z,50.65
2019-03-15T04:07:46.555Z,46.77
2019-03-15T04:10:15.401Z,46.97
2019-03-15T04:12:44.239Z,49.13
2019-03-15T04:15:13.006Z,50.43
2019-03-15T04:17:41.846Z,51.97
2019-03-15T04:20:14.287Z,55.87
2019-03-15T04:22:43.124Z,52.93
2019-03-15T04:25:11.894Z,58.33
2019-03-15T04:27:40.728Z,56.33
2019-03-15T04:30:13.609Z,59.97
2019-03-15T04:32:42.440Z,61.57
2019-03-15T04:35:11.281Z,62.13
2019-03-15T04:37:40.151Z,61.23
2019-03-15T04:40:11.287Z,63.87
2019-03-15T04:42:40.130Z,57.77
2019-03-15T04:45:09.283Z,57.80
2019-03-15T04:47:38.060Z,53.90
2019-03-15T04:50:07.635Z,65.10
2019-03-15T04:52:36.469Z,73.03
2019-03-15T04:55:06.305Z,71.00
2019-03-15T04:57:35.224Z,78.33
2019-03-15T05:00:04.785Z,70.63
2019-03-15T05:02:33.685Z,92.77
2019-03-15T05:05:02.523Z,75.20
2019-03-15T05:07:31.400Z,71.53
2019-03-15T05:10:00.404Z,76.03
2019-03-15T05:12:29.186Z,89.07
2019-03-15T05:14:57.973Z,77.90
2019-03-15T05:17:26.790Z,65.80
2019-03-15T05:19:55.620Z,73.80
2019-03-15T05:22:24.398Z,57.10
2019-03-15T05:24:53.248Z,65.73
2019-03-15T05:27:22.080Z,63.80
2019-03-15T05:29:50.925Z,77.67
2019-03-15T05:32:19.691Z,74.77
2019-03-15T05:34:48.492Z,67.30
2019-03-15T05:37:17.276Z,69.57
2019-03-15T05:39:46.058Z,71.13
2019-03-15T05:42:14.897Z,69.80
2019-03-15T05:44:43.730Z,77.80
2019-03-15T05:47:12.568Z,76.60
2019-03-15T05:49:41.409Z,76.67
2019-03-15T05:52:10.264Z,66.57
2019-03-15T05:54:39.126Z,54.30
2019-03-15T05:57:08.479Z,61.05
2019-03-15T05:59:37.923Z,55.05
2019-03-15T06:02:07.369Z,48.25
2019-03-15T06:04:36.856Z,52.00
2019-03-15T06:07:06.219Z,51.13
2019-03-15T06:09:35.654Z,47.88
2019-03-15T06:12:05.034Z,53.60
2019-03-15T06:14:34.485Z,50.20
2019-03-15T06:17:03.918Z,49.95
2019-03-15T06:19:33.352Z,50.35
2019-03-15T06:22:02.818Z,55.05
2019-03-15T06:24:32.250Z,54.98
2019-03-15T06:27:01.645Z,58.58
2019-03-15T06:29:31.041Z,58.63
2019-03-15T06:32:00.427Z,47.17
2019-03-15T06:34:29.876Z,47.62
2019-03-15T06:36:59.235Z,46.68
2019-03-15T06:39:28.686Z,47.23
2019-03-15T06:41:58.137Z,48.87
2019-03-15T06:44:27.571Z,41.02
2019-03-15T06:46:56.994Z,32.48
2019-03-15T06:49:26.372Z,32.23
2019-03-15T06:51:55.720Z,29.35
2019-03-15T06:54:25.085Z,21.45
2019-03-15T06:56:54.518Z,31.37
2019-03-15T06:59:23.888Z,24.18
2019-03-15T07:01:53.273Z,23.27
2019-03-15T07:04:22.659Z,20.08
2019-03-15T07:06:52.042Z,18.12
2019-03-15T07:09:21.422Z,23.25
2019-03-15T07:11:50.793Z,21.95
2019-03-15T07:14:20.398Z,21.02
2019-03-15T07:16:49.771Z,21.33
2019-03-15T07:19:26.047Z,21.45
2019-03-15T07:21:50.307Z,20.90
2019-03-15T07:24:24.936Z,24.37
2019-03-15T07:26:50.941Z,26.15
2019-03-15T07:29:20.435Z,19.87
2019-03-15T07:31:49.784Z,20.70
2019-03-15T07:34:19.237Z,21.65
2019-03-15T07:36:48.618Z,20.08
2019-03-15T07:39:18.003Z,22.35
2019-03-15T07:41:47.447Z,25.85
2019-03-15T07:44:16.888Z,20.80
2019-03-15T07:46:46.256Z,22.00
2019-03-15T07:49:15.695Z,25.20
2019-03-15T07:51:45.053Z,27.58
2019-03-15T07:54:14.417Z,23.77
2019-03-15T07:56:43.855Z,25.05
2019-03-15T07:59:13.298Z,48.10
2019-03-15T08:01:42.672Z,20.72
2019-03-15T08:04:17.063Z,29.55
2019-03-15T08:06:43.153Z,34.30
2019-03-15T08:09:12.500Z,24.60
2019-03-15T08:11:41.872Z,35.25
2019-03-15T08:14:11.302Z,21.52
2019-03-15T08:16:40.746Z,24.90
2019-03-15T08:19:10.131Z,19.02
2019-03-15T08:21:39.498Z,21.20
2019-03-15T08:24:08.933Z,18.50
2019-03-15T08:26:38.304Z,21.30
2019-03-15T08:29:09.614Z,22.87
2019-03-15T08:31:38.908Z,18.50
2019-03-15T08:34:08.338Z,14.50
2019-03-15T08:36:37.780Z,16.17
2019-03-15T08:39:07.535Z,18.87
2019-03-15T08:41:36.978Z,55.33
2019-03-15T08:44:06.411Z,15.48
2019-03-15T08:46:35.837Z,14.43
2019-03-15T08:49:05.256Z,14.53
2019-03-15T08:51:34.610Z,15.18
2019-03-15T08:54:04.139Z,11.22
2019-03-15T08:56:33.512Z,13.80
2019-03-15T08:59:02.883Z,14.47
2019-03-15T09:01:32.248Z,12.58
2019-03-15T09:04:01.685Z,13.08
2019-03-15T09:06:31.119Z,13.50
2019-03-15T09:09:00.557Z,17.10
2019-03-15T09:11:30.014Z,21.42
2019-03-15T09:13:59.516Z,23.30
2019-03-15T09:16:28.916Z,13.00
2019-03-15T09:18:58.346Z,14.70
2019-03-15T09:21:27.781Z,14.33
2019-03-15T09:23:57.150Z,12.60
2019-03-15T09:26:26.592Z,14.35
2019-03-15T09:28:55.951Z,13.20
2019-03-15T09:31:25.319Z,13.32
2019-03-15T09:33:54.687Z,14.70
2019-03-15T09:36:24.088Z,12.37
2019-03-15T09:38:53.541Z,14.18
2019-03-15T09:41:31.970Z,14.03
2019-03-15T09:43:53.995Z,15.68
2019-03-15T09:46:23.421Z,12.95
2019-03-15T09:48:52.824Z,15.43
2019-03-15T09:51:22.269Z,15.98
2019-03-15T09:53:51.692Z,15.58
2019-03-15T09:56:21.121Z,13.88
2019-03-15T09:58:50.472Z,12.78
2019-03-15T10:01:34.156Z,9.25
2019-03-15T10:03:50.898Z,11.12
2019-03-15T10:06:20.332Z,9.15
2019-03-15T10:08:49.759Z,17.73
2019-03-15T10:11:19.120Z,9.35
2019-03-15T10:13:48.548Z,9.30
2019-03-15T10:16:17.977Z,15.60
2019-03-15T10:18:50.344Z,11.05
2019-03-15T10:21:18.476Z,13.15
2019-03-15T10:23:47.909Z,11.50
2019-03-15T10:26:17.277Z,9.55
2019-03-15T10:28:46.724Z,10.70
2019-03-15T10:31:17.501Z,8.40
2019-03-15T10:33:50.791Z,7.92
2019-03-15T10:36:18.008Z,10.05
2019-03-15T10:38:47.451Z,9.68
2019-03-15T10:41:16.876Z,9.28
2019-03-15T10:43:46.320Z,7.83
2019-03-15T10:46:15.666Z,8.08
2019-03-15T10:48:45.019Z,7.12
2019-03-15T10:51:14.363Z,7.28
2019-03-15T10:53:43.706Z,8.63
2019-03-15T10:56:13.150Z,7.55
2019-03-15T10:58:42.514Z,6.65
2019-03-15T11:01:11.941Z,8.05
2019-03-15T11:03:41.374Z,7.45
2019-03-15T11:06:10.721Z,9.78
2019-03-15T11:08:40.163Z,8.05
2019-03-15T11:11:09.511Z,7.97
2019-03-15T11:13:38.956Z,7.25
2019-03-15T11:16:08.373Z,8.73
2019-03-15T11:18:37.750Z,10.98
2019-03-15T11:21:07.205Z,6.33
2019-03-15T11:23:36.530Z,8.43
2019-03-15T11:26:13.547Z,8.80
2019-03-15T11:28:36.965Z,9.35
2019-03-15T11:31:06.389Z,8.13
2019-03-15T11:33:35.750Z,7.65
2019-03-15T11:36:05.109Z,7.60
2019-03-15T11:38:34.458Z,8.15
2019-03-15T11:41:03.823Z,10.13
2019-03-15T11:43:33.171Z,8.55
2019-03-15T11:46:02.528Z,8.38
2019-03-15T11:48:31.872Z,7.47
2019-03-15T11:51:01.298Z,7.83
2019-03-15T11:53:30.776Z,9.23
2019-03-15T11:56:00.120Z,8.88
2019-03-15T11:58:29.467Z,7.97
2019-03-15T12:00:58.894Z,6.42
2019-03-15T12:03:28.228Z,7.08
2019-03-15T12:05:57.643Z,9.18
2019-03-15T12:08:27.002Z,7.42
2019-03-15T12:10:56.340Z,7.45
2019-03-15T12:13:25.764Z,7.40
2019-03-15T12:15:55.121Z,10.05
2019-03-15T12:18:24.552Z,7.17
2019-03-15T12:20:53.979Z,7.25
2019-03-15T12:23:23.412Z,7.25
2019-03-15T12:25:52.828Z,9.15
2019-03-15T12:28:22.185Z,5.80
2019-03-15T12:30:51.543Z,6.90
2019-03-15T12:33:20.900Z,8.10
2019-03-15T12:35:50.250Z,6.95
2019-03-15T12:38:19.677Z,9.03
2019-03-15T12:40:49.116Z,9.08
2019-03-15T12:43:18.452Z,6.05
2019-03-15T12:45:47.805Z,8.45
2019-03-15T12:48:17.233Z,9.10
2019-03-15T12:50:46.661Z,9.90
2019-03-15T12:53:16.062Z,7.78
2019-03-15T12:55:45.483Z,8.78
2019-03-15T12:58:14.899Z,6.83
2019-03-15T13:00:44.330Z,5.28
2019-03-15T13:03:13.777Z,6.17
2019-03-15T13:05:43.207Z,6.85
2019-03-15T13:08:12.555Z,8.95
2019-03-15T13:10:41.987Z,8.10
2019-03-15T13:13:11.408Z,8.98
2019-03-15T13:15:40.855Z,16.07
2019-03-15T13:18:10.277Z,7.50
2019-03-15T13:20:39.617Z,6.85
2019-03-15T13:23:09.041Z,8.18
2019-03-15T13:25:38.414Z,10.13
2019-03-15T13:28:07.763Z,10.70
2019-03-15T13:30:37.191Z,7.03
2019-03-15T13:33:19.112Z,6.62
2019-03-15T13:35:37.702Z,9.60
2019-03-15T13:38:07.067Z,5.42
2019-03-15T13:40:36.417Z,8.03
2019-03-15T13:43:05.773Z,9.88
2019-03-15T13:45:35.193Z,5.60
2019-03-15T13:48:04.616Z,8.70
2019-03-15T13:50:33.972Z,6.90
2019-03-15T13:53:03.327Z,7.17
2019-03-15T13:55:32.681Z,8.75
2019-03-15T13:58:02.104Z,5.28
2019-03-15T14:00:31.459Z,4.90
2019-03-15T14:03:00.884Z,5.90
2019-03-15T14:05:30.237Z,15.15
2019-03-15T14:08:11.265Z,10.53
2019-03-15T14:10:30.757Z,8.45
2019-03-15T14:13:00.117Z,5.20
2019-03-15T14:15:29.534Z,5.50
2019-03-15T14:17:58.999Z,6.12
2019-03-15T14:20:28.440Z,8.85
2019-03-15T14:22:57.849Z,7.40
2019-03-15T14:25:28.175Z,6.42
2019-03-15T14:27:57.625Z,11.35
2019-03-15T14:30:27.047Z,12.82
2019-03-15T14:32:56.408Z,7.35
2019-03-15T14:35:25.836Z,6.95
2019-03-15T14:37:55.363Z,8.50
2019-03-15T14:40:25.059Z,11.03
2019-03-15T14:42:54.636Z,6.08
2019-03-15T14:45:24.247Z,17.52
2019-03-15T14:47:53.643Z,5.85
2019-03-15T14:50:23.073Z,7.92
2019-03-15T14:52:52.414Z,7.28
2019-03-15T14:55:21.843Z,7.08
2019-03-15T14:57:53.311Z,5.33
2019-03-15T15:00:22.351Z,8.83
2019-03-15T15:02:51.769Z,8.18
2019-03-15T15:05:21.131Z,99.97
2019-03-15T15:07:50.497Z,7.92
2019-03-15T15:10:20.026Z,9.68
2019-03-15T15:12:49.505Z,17.98
2019-03-15T15:15:22.154Z,9.18
2019-03-15T15:17:51.581Z,30.37
2019-03-15T15:20:21.011Z,13.43
2019-03-15T15:22:50.442Z,13.58
2019-03-15T15:25:19.892Z,11.88
2019-03-15T15:27:49.306Z,8.00
2019-03-15T15:30:19.049Z,12.88
2019-03-15T15:32:48.483Z,11.48
2019-03-15T15:35:17.858Z,22.98
2019-03-15T15:37:47.302Z,33.70
2019-03-15T15:40:18.526Z,21.27
2019-03-15T15:42:47.893Z,12.82
2019-03-15T15:45:17.258Z,20.65
2019-03-15T15:47:46.701Z,28.83
2019-03-15T15:50:16.562Z,31.80
2019-03-15T15:52:46.016Z,31.25
2019-03-15T15:55:16.245Z,25.50
2019-03-15T15:57:45.675Z,30.50
2019-03-15T16:00:18.505Z,20.72
2019-03-15T16:02:47.950Z,25.97
2019-03-15T16:05:17.373Z,38.65
2019-03-15T16:07:46.817Z,42.85
2019-03-15T16:10:18.256Z,63.75
2019-03-15T16:12:47.573Z,65.28
2019-03-15T16:15:19.993Z,54.90
2019-03-15T16:17:49.432Z,28.62
2019-03-15T16:20:18.874Z,24.25
2019-03-15T16:22:48.320Z,40.83
2019-03-15T16:25:17.769Z,148.57
2019-03-15T16:27:47.149Z,230.70
2019-03-15T16:30:18.587Z,142.10
2019-03-15T16:32:48.252Z,115.55
2019-03-15T16:35:17.701Z,191.15
2019-03-15T16:37:47.071Z,40.60
2019-03-15T16:40:16.807Z,56.83
2019-03-15T16:42:46.192Z,68.22
2019-03-15T16:45:24.131Z,47.60
2019-03-15T16:47:53.498Z,65.40
2019-03-15T16:50:22.956Z,78.67
2019-03-15T16:52:52.381Z,53.35
2019-03-15T16:55:21.801Z,47.35
2019-03-15T16:57:51.262Z,135.82
2019-03-15T17:00:20.710Z,94.30
2019-03-15T17:02:50.178Z,246.80
2019-03-15T17:05:19.601Z,72.45
2019-03-15T17:07:49.033Z,137.15
2019-03-15T17:10:20.054Z,95.22
2019-03-15T17:12:49.493Z,81.40
2019-03-15T17:15:21.492Z,47.00
2019-03-15T17:17:50.940Z,42.25
2019-03-15T17:20:20.380Z,95.50
2019-03-15T17:22:49.807Z,102.27
2019-03-15T17:25:19.233Z,106.00
2019-03-15T17:27:48.682Z,115.42
2019-03-15T17:30:18.619Z,142.75
2019-03-15T17:32:48.055Z,155.75
2019-03-15T17:35:21.223Z,85.17
2019-03-15T17:37:50.655Z,49.50
2019-03-15T17:40:21.009Z,40.25
2019-03-15T17:42:50.371Z,50.03
2019-03-15T17:45:19.749Z,37.42
2019-03-15T17:47:49.182Z,27.70
2019-03-15T17:50:22.978Z,24.25
2019-03-15T17:52:52.403Z,25.62
2019-03-15T17:55:21.864Z,38.92
2019-03-15T17:57:51.307Z,27.90
2019-03-15T18:00:27.967Z,29.32
2019-03-15T18:02:57.524Z,47.40
2019-03-15T18:05:26.953Z,81.53
2019-03-15T18:07:56.424Z,70.37
2019-03-15T18:10:25.842Z,64.10
2019-03-15T18:12:55.284Z,49.55
2019-03-15T18:15:24.729Z,79.85
2019-03-15T18:17:54.188Z,72.97
2019-03-15T18:20:23.620Z,79.67
2019-03-15T18:22:53.077Z,48.42
2019-03-15T18:25:22.565Z,47.60
2019-03-15T18:27:52.807Z,44.45
2019-03-15T18:30:22.318Z,37.28
2019-03-15T18:32:51.804Z,41.13
2019-03-15T18:35:32.959Z,46.53
2019-03-15T18:37:52.651Z,32.78
2019-03-15T18:40:22.118Z,30.68
2019-03-15T18:42:51.569Z,28.65
2019-03-15T18:45:21.008Z,27.42
2019-03-15T18:47:50.654Z,27.62
2019-03-15T18:50:24.774Z,25.97
2019-03-15T18:52:54.155Z,28.73
2019-03-15T18:55:23.613Z,23.07
2019-03-15T18:57:53.042Z,27.87
2019-03-15T19:00:23.640Z,30.80
2019-03-15T19:02:53.084Z,26.62
2019-03-15T19:05:22.546Z,27.80
2019-03-15T19:07:51.931Z,25.68
2019-03-15T19:10:21.396Z,31.93
2019-03-15T19:12:50.914Z,33.58
2019-03-15T19:15:21.550Z,29.12
2019-03-15T19:17:51.011Z,34.60
2019-03-15T19:20:20.387Z,42.17
2019-03-15T19:22:49.844Z,41.80
2019-03-15T19:25:19.294Z,41.77
2019-03-15T19:27:48.773Z,38.35
2019-03-15T19:30:21.241Z,31.30
2019-03-15T19:32:58.906Z,27.38
2019-03-15T19:35:30.160Z,27.95
2019-03-15T19:37:59.614Z,20.77
2019-03-15T19:40:29.072Z,22.40
2019-03-15T19:42:58.522Z,22.50
2019-03-15T19:45:28.053Z,21.25
2019-03-15T19:47:57.580Z,22.52
2019-03-15T19:50:27.033Z,38.00
2019-03-15T19:52:56.480Z,28.52
2019-03-15T19:55:25.996Z,39.10
2019-03-15T19:57:55.441Z,66.40
2019-03-15T20:00:24.945Z,50.52
2019-03-15T20:02:54.391Z,21.33
2019-03-15T20:05:23.758Z,19.50
2019-03-15T20:07:53.326Z,18.12
2019-03-15T20:10:22.805Z,17.85
2019-03-15T20:12:52.262Z,14.40
2019-03-15T20:15:21.630Z,17.30
2019-03-15T20:17:51.056Z,12.95
2019-03-15T20:20:20.979Z,16.67
2019-03-15T20:22:50.422Z,25.95
2019-03-15T20:25:19.840Z,15.50
2019-03-15T20:27:49.254Z,12.28
2019-03-15T20:30:25.974Z,12.73
2019-03-15T20:32:51.068Z,13.90
2019-03-15T20:35:20.510Z,11.30
2019-03-15T20:37:49.964Z,10.18
2019-03-15T20:40:19.408Z,12.28
2019-03-15T20:42:48.774Z,11.78
2019-03-15T20:45:26.109Z,11.30
2019-03-15T20:47:55.513Z,11.30
2019-03-15T20:50:24.944Z,14.10
2019-03-15T20:53:07.251Z,17.48
2019-03-15T20:55:28.539Z,20.00
2019-03-15T20:57:56.729Z,12.43
2019-03-15T21:00:35.508Z,14.15
2019-03-15T21:02:57.250Z,17.57
2019-03-15T21:05:26.702Z,13.38
2019-03-15T21:07:56.120Z,13.15
2019-03-15T21:10:25.499Z,12.55
2019-03-15T21:12:54.854Z,13.10
2019-03-15T21:15:24.283Z,11.48
2019-03-15T21:17:53.627Z,13.32
2019-03-15T21:20:23.196Z,11.65
2019-03-15T21:22:52.583Z,14.50
2019-03-15T21:25:21.962Z,10.68
2019-03-15T21:27:54.142Z,9.83
2019-03-15T21:30:25.320Z,9.83
2019-03-15T21:32:54.744Z,9.88
2019-03-15T21:35:24.189Z,11.73
2019-03-15T21:37:53.625Z,12.37
2019-03-15T21:40:23.362Z,10.35
2019-03-15T21:42:52.785Z,10.28
2019-03-15T21:45:22.215Z,13.00
2019-03-15T21:47:51.638Z,10.50
2019-03-15T21:50:24.239Z,9.80
2019-03-15T21:52:53.658Z,10.80
2019-03-15T21:55:23.087Z,11.57
2019-03-15T21:57:52.518Z,9.85
2019-03-15T22:00:21.951Z,13.22
2019-03-15T22:02:51.362Z,9.43
2019-03-15T22:05:20.793Z,8.50
2019-03-15T22:07:50.214Z,9.90
2019-03-15T22:10:19.561Z,7.33
2019-03-15T22:12:48.925Z,10.13
2019-03-15T22:15:18.369Z,9.95
2019-03-15T22:17:47.879Z,9.35
2019-03-15T22:20:17.784Z,8.63
2019-03-15T22:22:47.144Z,7.90
2019-03-15T22:25:16.506Z,9.98
2019-03-15T22:27:45.960Z,10.75
2019-03-15T22:30:15.672Z,9.95
2019-03-15T22:32:45.107Z,13.13
2019-03-15T22:35:14.450Z,11.35
2019-03-15T22:37:43.807Z,9.63
2019-03-15T22:40:14.252Z,7.75
2019-03-15T22:42:43.683Z,9.33
2019-03-15T22:45:14.411Z,8.78
2019-03-15T22:47:43.829Z,8.58
2019-03-15T22:50:14.243Z,8.90
2019-03-15T22:52:43.614Z,10.13
2019-03-15T22:55:13.054Z,9.30
2019-03-15T22:57:42.490Z,11.30
2019-03-15T23:00:16.762Z,12.37
2019-03-15T23:02:45.616Z,16.17
2019-03-15T23:05:14.823Z,17.47
2019-03-15T23:07:44.288Z,19.05
2019-03-15T23:10:13.728Z,19.87
2019-03-15T23:12:42.509Z,333.07
2019-03-15T23:15:11.979Z,30.13
2019-03-15T23:17:40.753Z,15.83
2019-03-15T23:20:11.820Z,15.30
2019-03-15T23:22:40.620Z,11.97
2019-03-15T23:25:09.688Z,14.80
2019-03-15T23:27:38.527Z,12.90
2019-03-15T23:30:12.950Z,11.57
2019-03-15T23:32:41.935Z,12.23
2019-03-15T23:35:10.778Z,12.50
2019-03-15T23:37:39.609Z,12.77
2019-03-15T23:40:10.816Z,12.03
2019-03-15T23:42:39.767Z,13.27
2019-03-15T23:45:10.056Z,10.07
2019-03-15T23:47:38.835Z,11.35
2019-03-15T23:50:12.997Z,12.03
2019-03-15T23:52:41.835Z,12.40
2019-03-15T23:55:10.874Z,14.13
2019-03-15T23:57:39.643Z,14.67
